sensor_id;sensor_type;location;lat;lon;timestamp;pressure;altitude;pressure_sealevel;temperature;humidity
13709;BME280;54933;51.908;7.730;2022-09-14T00:00:18;100213.31;;;23.92;71.40
13709;BME280;54933;51.908;7.730;2022-09-14T00:02:44;100217.09;;;23.91;71.69
13709;BME280;54933;51.908;7.730;2022-09-14T00:05:11;100226.88;;;23.92;71.61
13709;BME280;54933;51.908;7.730;2022-09-14T00:07:36;100220.63;;;23.91;71.74
13709;BME280;54933;51.908;7.730;2022-09-14T00:10:01;100222.53;;;23.91;71.86
13709;BME280;54933;51.908;7.730;2022-09-14T00:12:27;100216.84;;;23.92;71.94
13709;BME280;54933;51.908;7.730;2022-09-14T00:14:52;100216.59;;;23.94;72.13
13709;BME280;54933;51.908;7.730;2022-09-14T00:17:17;100216.94;;;23.97;72.01
13709;BME280;54933;51.908;7.730;2022-09-14T00:19:43;100209.88;;;23.96;71.88
13709;BME280;54933;51.908;7.730;2022-09-14T00:22:08;100206.09;;;23.97;71.89
13709;BME280;54933;51.908;7.730;2022-09-14T00:24:33;100202.53;;;23.97;72.01
13709;BME280;54933;51.908;7.730;2022-09-14T00:26:59;100209.03;;;23.96;71.80
13709;BME280;54933;51.908;7.730;2022-09-14T00:29:26;100197.34;;;23.95;71.64
13709;BME280;54933;51.908;7.730;2022-09-14T00:31:52;100190.88;;;23.96;71.99
13709;BME280;54933;51.908;7.730;2022-09-14T00:34:17;100186.00;;;23.98;71.66
13709;BME280;54933;51.908;7.730;2022-09-14T00:36:44;100194.63;;;23.95;71.59
13709;BME280;54933;51.908;7.730;2022-09-14T00:39:12;100189.97;;;23.91;71.72
13709;BME280;54933;51.908;7.730;2022-09-14T00:41:39;100181.56;;;23.92;71.71
13709;BME280;54933;51.908;7.730;2022-09-14T00:46:39;100180.59;;;23.98;71.66
13709;BME280;54933;51.908;7.730;2022-09-14T00:49:10;100180.59;;;23.98;71.67
13709;BME280;54933;51.908;7.730;2022-09-14T00:52:02;100173.75;;;23.96;71.42
13709;BME280;54933;51.908;7.730;2022-09-14T00:54:27;100172.34;;;23.93;71.43
13709;BME280;54933;51.908;7.730;2022-09-14T00:56:53;100161.00;;;23.96;71.39
13709;BME280;54933;51.908;7.730;2022-09-14T00:59:25;100164.78;;;23.95;71.52
13709;BME280;54933;51.908;7.730;2022-09-14T01:01:51;100163.16;;;23.94;71.33
13709;BME280;54933;51.908;7.730;2022-09-14T01:04:17;100162.66;;;23.97;71.47
13709;BME280;54933;51.908;7.730;2022-09-14T01:06:59;100161.50;;;23.93;71.06
13709;BME280;54933;51.908;7.730;2022-09-14T01:09:57;100162.56;;;23.92;71.11
13709;BME280;54933;51.908;7.730;2022-09-14T01:12:50;100151.97;;;23.91;71.16
13709;BME280;54933;51.908;7.730;2022-09-14T01:15:26;100154.94;;;23.89;71.10
13709;BME280;54933;51.908;7.730;2022-09-14T01:18:27;100157.56;;;23.84;71.09
13709;BME280;54933;51.908;7.730;2022-09-14T01:21:12;100167.94;;;23.87;71.24
13709;BME280;54933;51.908;7.730;2022-09-14T01:24:00;100154.09;;;23.89;71.23
13709;BME280;54933;51.908;7.730;2022-09-14T01:26:38;100146.72;;;23.84;71.88
13709;BME280;54933;51.908;7.730;2022-09-14T01:29:13;100146.41;;;23.81;71.30
13709;BME280;54933;51.908;7.730;2022-09-14T01:31:44;100131.78;;;23.82;71.62
13709;BME280;54933;51.908;7.730;2022-09-14T01:37:12;100130.94;;;23.81;71.90
13709;BME280;54933;51.908;7.730;2022-09-14T01:39:45;100135.88;;;23.84;71.51
13709;BME280;54933;51.908;7.730;2022-09-14T01:42:13;100139.09;;;23.81;71.66
13709;BME280;54933;51.908;7.730;2022-09-14T01:44:41;100132.06;;;23.85;71.51
13709;BME280;54933;51.908;7.730;2022-09-14T01:47:13;100129.34;;;23.85;71.40
13709;BME280;54933;51.908;7.730;2022-09-14T01:49:47;100134.25;;;23.83;71.30
13709;BME280;54933;51.908;7.730;2022-09-14T01:52:20;100138.50;;;23.79;71.06
13709;BME280;54933;51.908;7.730;2022-09-14T01:55:00;100132.25;;;23.79;71.30
13709;BME280;54933;51.908;7.730;2022-09-14T01:57:49;100120.94;;;23.82;71.39
13709;BME280;54933;51.908;7.730;2022-09-14T02:00:18;100125.53;;;23.81;71.45
13709;BME280;54933;51.908;7.730;2022-09-14T02:02:57;100120.41;;;23.85;71.49
13709;BME280;54933;51.908;7.730;2022-09-14T02:08:15;100110.88;;;23.82;71.40
13709;BME280;54933;51.908;7.730;2022-09-14T02:10:40;100114.75;;;23.86;71.43
13709;BME280;54933;51.908;7.730;2022-09-14T02:13:07;100112.81;;;23.87;71.25
13709;BME280;54933;51.908;7.730;2022-09-14T02:15:34;100106.34;;;23.88;71.25
13709;BME280;54933;51.908;7.730;2022-09-14T02:18:00;100109.63;;;23.90;71.04
13709;BME280;54933;51.908;7.730;2022-09-14T02:23:12;100107.66;;;23.85;71.06
13709;BME280;54933;51.908;7.730;2022-09-14T02:25:38;100106.28;;;23.83;70.98
13709;BME280;54933;51.908;7.730;2022-09-14T02:28:05;100106.59;;;23.86;71.15
13709;BME280;54933;51.908;7.730;2022-09-14T02:30:41;100096.31;;;23.88;70.93
13709;BME280;54933;51.908;7.730;2022-09-14T02:33:22;100094.66;;;23.87;70.80
13709;BME280;54933;51.908;7.730;2022-09-14T02:35:54;100094.41;;;23.89;70.93
13709;BME280;54933;51.908;7.730;2022-09-14T02:41:47;100097.13;;;23.89;70.74
13709;BME280;54933;51.908;7.730;2022-09-14T02:44:19;100088.19;;;23.88;70.58
13709;BME280;54933;51.908;7.730;2022-09-14T02:47:02;100088.72;;;23.90;70.69
13709;BME280;54933;51.908;7.730;2022-09-14T02:52:12;100077.88;;;23.90;70.49
13709;BME280;54933;51.908;7.730;2022-09-14T02:54:47;100086.34;;;23.94;70.83
13709;BME280;54933;51.908;7.730;2022-09-14T02:57:15;100081.66;;;23.89;70.38
13709;BME280;54933;51.908;7.730;2022-09-14T02:59:40;100081.72;;;23.94;70.61
13709;BME280;54933;51.908;7.730;2022-09-14T03:02:05;100081.91;;;23.88;70.36
13709;BME280;54933;51.908;7.730;2022-09-14T03:04:31;100087.66;;;23.91;70.73
13709;BME280;54933;51.908;7.730;2022-09-14T03:06:56;100087.66;;;23.91;70.43
13709;BME280;54933;51.908;7.730;2022-09-14T03:09:21;100087.66;;;23.91;70.29
13709;BME280;54933;51.908;7.730;2022-09-14T03:11:46;100083.22;;;23.85;70.34
13709;BME280;54933;51.908;7.730;2022-09-14T03:14:12;100079.47;;;23.86;70.44
13709;BME280;54933;51.908;7.730;2022-09-14T03:16:38;100079.47;;;23.86;70.54
13709;BME280;54933;51.908;7.730;2022-09-14T03:19:04;100078.94;;;23.89;70.11
13709;BME280;54933;51.908;7.730;2022-09-14T03:21:30;100065.31;;;23.84;70.10
13709;BME280;54933;51.908;7.730;2022-09-14T03:23:56;100063.69;;;23.83;70.08
13709;BME280;54933;51.908;7.730;2022-09-14T03:26:23;100061.03;;;23.88;70.21
13709;BME280;54933;51.908;7.730;2022-09-14T03:28:50;100064.28;;;23.90;70.09
13709;BME280;54933;51.908;7.730;2022-09-14T03:31:16;100059.38;;;23.87;69.77
13709;BME280;54933;51.908;7.730;2022-09-14T03:33:41;100056.09;;;23.85;70.12
13709;BME280;54933;51.908;7.730;2022-09-14T03:36:11;100063.75;;;23.88;70.03
13709;BME280;54933;51.908;7.730;2022-09-14T03:38:37;100058.88;;;23.90;69.99
13709;BME280;54933;51.908;7.730;2022-09-14T03:41:09;100047.69;;;23.87;69.72
13709;BME280;54933;51.908;7.730;2022-09-14T03:43:34;100060.16;;;23.83;69.63
13709;BME280;54933;51.908;7.730;2022-09-14T03:46:16;100051.19;;;23.82;69.84
13709;BME280;54933;51.908;7.730;2022-09-14T03:48:42;100048.72;;;23.81;69.60
13709;BME280;54933;51.908;7.730;2022-09-14T03:51:09;100045.44;;;23.79;69.78
13709;BME280;54933;51.908;7.730;2022-09-14T03:53:36;100048.47;;;23.82;69.69
13709;BME280;54933;51.908;7.730;2022-09-14T03:56:06;100045.75;;;23.82;69.84
13709;BME280;54933;51.908;7.730;2022-09-14T03:58:31;100042.78;;;23.84;69.68
13709;BME280;54933;51.908;7.730;2022-09-14T04:01:04;100041.84;;;23.73;69.42
13709;BME280;54933;51.908;7.730;2022-09-14T04:03:30;100038.06;;;23.74;69.49
13709;BME280;54933;51.908;7.730;2022-09-14T04:05:56;100033.47;;;23.75;69.51
13709;BME280;54933;51.908;7.730;2022-09-14T04:08:22;100035.41;;;23.79;69.57
13709;BME280;54933;51.908;7.730;2022-09-14T04:10:47;100030.50;;;23.76;69.80
13709;BME280;54933;51.908;7.730;2022-09-14T04:13:12;100035.41;;;23.79;69.49
13709;BME280;54933;51.908;7.730;2022-09-14T04:15:37;100033.78;;;23.78;69.42
13709;BME280;54933;51.908;7.730;2022-09-14T04:18:03;100040.31;;;23.82;69.61
13709;BME280;54933;51.908;7.730;2022-09-14T04:20:28;100038.88;;;23.75;69.33
13709;BME280;54933;51.908;7.730;2022-09-14T04:22:53;100031.56;;;23.75;69.45
13709;BME280;54933;51.908;7.730;2022-09-14T04:25:18;100031.00;;;23.73;69.46
13709;BME280;54933;51.908;7.730;2022-09-14T04:27:44;100028.88;;;23.75;69.39
13709;BME280;54933;51.908;7.730;2022-09-14T04:30:10;100027.78;;;23.76;69.32
13709;BME280;54933;51.908;7.730;2022-09-14T04:32:35;100035.84;;;23.71;69.14
13709;BME280;54933;51.908;7.730;2022-09-14T04:35:00;100038.50;;;23.66;69.28
13709;BME280;54933;51.908;7.730;2022-09-14T04:37:29;100026.63;;;23.72;69.36
13709;BME280;54933;51.908;7.730;2022-09-14T04:39:55;100018.50;;;23.72;69.63
13709;BME280;54933;51.908;7.730;2022-09-14T04:42:20;100023.31;;;23.65;69.30
13709;BME280;54933;51.908;7.730;2022-09-14T04:44:45;100021.47;;;23.71;69.52
13709;BME280;54933;51.908;7.730;2022-09-14T04:47:10;100021.72;;;23.69;69.76
13709;BME280;54933;51.908;7.730;2022-09-14T04:49:36;100018.44;;;23.67;69.62
13709;BME280;54933;51.908;7.730;2022-09-14T04:52:01;100012.78;;;23.69;69.86
13709;BME280;54933;51.908;7.730;2022-09-14T04:54:26;100010.28;;;23.67;69.75
13709;BME280;54933;51.908;7.730;2022-09-14T04:56:52;100006.28;;;23.70;69.81
13709;BME280;54933;51.908;7.730;2022-09-14T04:59:17;100016.16;;;23.59;69.88
13709;BME280;54933;51.908;7.730;2022-09-14T05:01:44;100022.66;;;23.58;69.83
13709;BME280;54933;51.908;7.730;2022-09-14T05:04:11;100015.22;;;23.49;70.07
13709;BME280;54933;51.908;7.730;2022-09-14T05:06:38;100024.13;;;23.44;70.29
13709;BME280;54933;51.908;7.730;2022-09-14T05:09:09;100025.06;;;23.00;70.33
13709;BME280;54933;51.908;7.730;2022-09-14T05:11:35;100020.00;;;23.25;70.22
13709;BME280;54933;51.908;7.730;2022-09-14T05:14:02;100023.47;;;23.37;70.66
13709;BME280;54933;51.908;7.730;2022-09-14T05:16:29;100025.69;;;23.40;70.26
13709;BME280;54933;51.908;7.730;2022-09-14T05:19:00;100012.63;;;23.37;70.34
13709;BME280;54933;51.908;7.730;2022-09-14T05:21:27;100018.81;;;23.33;70.43
13709;BME280;54933;51.908;7.730;2022-09-14T05:23:54;100008.75;;;23.33;70.39
13709;BME280;54933;51.908;7.730;2022-09-14T05:26:21;100009.59;;;23.34;70.21
13709;BME280;54933;51.908;7.730;2022-09-14T05:28:54;100008.28;;;23.36;70.69
13709;BME280;54933;51.908;7.730;2022-09-14T05:31:20;100019.13;;;23.36;70.36
13709;BME280;54933;51.908;7.730;2022-09-14T05:33:47;100010.41;;;23.34;70.40
13709;BME280;54933;51.908;7.730;2022-09-14T05:36:12;100018.28;;;23.36;70.21
13709;BME280;54933;51.908;7.730;2022-09-14T05:38:38;100015.47;;;23.47;70.16
13709;BME280;54933;51.908;7.730;2022-09-14T05:41:05;100012.91;;;23.57;70.21
13709;BME280;54933;51.908;7.730;2022-09-14T05:43:31;100014.28;;;23.60;70.11
13709;BME280;54933;51.908;7.730;2022-09-14T05:46:00;100014.66;;;23.47;70.00
13709;BME280;54933;51.908;7.730;2022-09-14T05:48:26;100006.84;;;23.50;69.95
13709;BME280;54933;51.908;7.730;2022-09-14T05:50:59;100006.06;;;23.55;70.23
13709;BME280;54933;51.908;7.730;2022-09-14T05:53:25;100000.72;;;23.60;70.24
13709;BME280;54933;51.908;7.730;2022-09-14T05:56:05;100008.03;;;23.59;70.44
13709;BME280;54933;51.908;7.730;2022-09-14T05:58:31;99999.88;;;23.59;70.53
13709;BME280;54933;51.908;7.730;2022-09-14T06:00:56;100008.09;;;23.64;70.34
13709;BME280;54933;51.908;7.730;2022-09-14T06:03:22;100008.09;;;23.64;70.29
13709;BME280;54933;51.908;7.730;2022-09-14T06:05:47;100007.03;;;23.65;70.35
13709;BME280;54933;51.908;7.730;2022-09-14T06:08:12;100007.03;;;23.65;70.35
13709;BME280;54933;51.908;7.730;2022-09-14T06:10:37;100013.00;;;23.67;70.41
13709;BME280;54933;51.908;7.730;2022-09-14T06:13:03;100006.78;;;23.67;70.13
13709;BME280;54933;51.908;7.730;2022-09-14T06:15:28;100012.47;;;23.65;70.31
13709;BME280;54933;51.908;7.730;2022-09-14T06:17:53;100011.38;;;23.66;69.96
13709;BME280;54933;51.908;7.730;2022-09-14T06:20:19;100016.16;;;23.59;70.03
13709;BME280;54933;51.908;7.730;2022-09-14T06:22:44;100014.28;;;23.60;70.43
13709;BME280;54933;51.908;7.730;2022-09-14T06:25:09;100007.47;;;23.57;70.71
13709;BME280;54933;51.908;7.730;2022-09-14T06:27:36;100004.75;;;23.57;70.94
13709;BME280;54933;51.908;7.730;2022-09-14T06:30:01;100000.13;;;23.58;70.90
13709;BME280;54933;51.908;7.730;2022-09-14T06:32:28;100003.09;;;23.56;71.06
13709;BME280;54933;51.908;7.730;2022-09-14T06:34:54;100007.28;;;23.42;71.32
13709;BME280;54933;51.908;7.730;2022-09-14T06:37:19;100015.09;;;23.39;71.73
13709;BME280;54933;51.908;7.730;2022-09-14T06:39:45;100008.91;;;23.43;72.00
13709;BME280;54933;51.908;7.730;2022-09-14T06:42:10;100012.13;;;23.40;72.26
13709;BME280;54933;51.908;7.730;2022-09-14T06:44:35;100017.28;;;23.42;72.70
13709;BME280;54933;51.908;7.730;2022-09-14T06:47:00;100012.69;;;23.42;72.81
13709;BME280;54933;51.908;7.730;2022-09-14T06:49:26;100014.91;;;23.45;72.81
13709;BME280;54933;51.908;7.730;2022-09-14T06:51:51;100020.91;;;23.47;73.06
13709;BME280;54933;51.908;7.730;2022-09-14T06:54:20;100017.94;;;23.49;73.05
13709;BME280;54933;51.908;7.730;2022-09-14T06:56:45;100013.81;;;23.46;73.00
13709;BME280;54933;51.908;7.730;2022-09-14T06:59:13;100026.81;;;23.44;73.20
13709;BME280;54933;51.908;7.730;2022-09-14T07:01:39;100025.75;;;23.45;73.18
13709;BME280;54933;51.908;7.730;2022-09-14T07:04:05;100026.31;;;23.47;73.55
13709;BME280;54933;51.908;7.730;2022-09-14T07:06:37;100027.38;;;23.46;73.60
13709;BME280;54933;51.908;7.730;2022-09-14T07:09:04;100021.69;;;23.48;73.40
13709;BME280;54933;51.908;7.730;2022-09-14T07:11:30;100022.47;;;23.43;73.48
13709;BME280;54933;51.908;7.730;2022-09-14T07:13:55;100020.06;;;23.47;73.22
13709;BME280;54933;51.908;7.730;2022-09-14T07:16:23;100026.31;;;23.47;73.22
13709;BME280;54933;51.908;7.730;2022-09-14T07:18:52;100029.84;;;23.48;73.37
13709;BME280;54933;51.908;7.730;2022-09-14T07:21:17;100027.38;;;23.46;73.21
13709;BME280;54933;51.908;7.730;2022-09-14T07:23:45;100021.66;;;23.43;73.40
13709;BME280;54933;51.908;7.730;2022-09-14T07:26:17;100022.88;;;23.35;73.47
13709;BME280;54933;51.908;7.730;2022-09-14T07:28:44;100024.84;;;23.40;73.90
13709;BME280;54933;51.908;7.730;2022-09-14T07:31:19;100025.69;;;23.40;73.88
13709;BME280;54933;51.908;7.730;2022-09-14T07:33:45;100028.72;;;23.44;74.27
13709;BME280;54933;51.908;7.730;2022-09-14T07:36:11;100026.31;;;23.47;74.01
13709;BME280;54933;51.908;7.730;2022-09-14T07:38:37;100038.28;;;23.51;74.12
13709;BME280;54933;51.908;7.730;2022-09-14T07:41:02;100035.03;;;23.49;73.44
13709;BME280;54933;51.908;7.730;2022-09-14T07:43:28;100021.50;;;23.54;73.56
13709;BME280;54933;51.908;7.730;2022-09-14T07:45:54;100015.88;;;23.56;73.63
13709;BME280;54933;51.908;7.730;2022-09-14T07:48:19;99997.69;;;23.56;73.90
13709;BME280;54933;51.908;7.730;2022-09-14T07:50:45;100018.25;;;23.52;74.13
13709;BME280;54933;51.908;7.730;2022-09-14T07:53:11;100007.94;;;23.54;74.24
13709;BME280;54933;51.908;7.730;2022-09-14T07:55:39;100005.44;;;23.48;74.79
13709;BME280;54933;51.908;7.730;2022-09-14T07:58:06;99999.81;;;23.54;74.92
13709;BME280;54933;51.908;7.730;2022-09-14T08:00:32;100020.47;;;23.55;75.17
13709;BME280;54933;51.908;7.730;2022-09-14T08:02:58;100020.22;;;23.57;75.12
13709;BME280;54933;51.908;7.730;2022-09-14T08:05:24;100014.97;;;23.50;75.22
13709;BME280;54933;51.908;7.730;2022-09-14T08:07:56;100024.72;;;23.51;75.47
13709;BME280;54933;51.908;7.730;2022-09-14T08:10:22;100025.81;;;23.50;74.85
13709;BME280;54933;51.908;7.730;2022-09-14T08:12:52;100036.91;;;23.49;74.79
13709;BME280;54933;51.908;7.730;2022-09-14T08:15:19;100026.31;;;23.47;74.67
13709;BME280;54933;51.908;7.730;2022-09-14T08:17:45;100029.91;;;23.53;74.98
13709;BME280;54933;51.908;7.730;2022-09-14T08:20:10;100033.13;;;23.50;74.70
13709;BME280;54933;51.908;7.730;2022-09-14T08:22:36;100031.25;;;23.50;74.52
13709;BME280;54933;51.908;7.730;2022-09-14T08:25:01;100029.91;;;23.53;74.62
13709;BME280;54933;51.908;7.730;2022-09-14T08:27:26;100019.38;;;23.56;74.31
13709;BME280;54933;51.908;7.730;2022-09-14T08:29:52;100020.72;;;23.54;74.21
13709;BME280;54933;51.908;7.730;2022-09-14T08:32:17;100014.22;;;23.55;74.28
13709;BME280;54933;51.908;7.730;2022-09-14T08:34:42;100014.53;;;23.58;74.32
13709;BME280;54933;51.908;7.730;2022-09-14T08:37:07;100009.88;;;23.54;74.08
13709;BME280;54933;51.908;7.730;2022-09-14T08:39:34;100003.63;;;23.53;73.92
13709;BME280;54933;51.908;7.730;2022-09-14T08:42:00;100007.16;;;23.54;74.18
13709;BME280;54933;51.908;7.730;2022-09-14T08:47:02;100009.03;;;23.53;74.31
13709;BME280;54933;51.908;7.730;2022-09-14T08:49:47;100002.53;;;23.54;74.37
13709;BME280;54933;51.908;7.730;2022-09-14T08:52:26;99994.97;;;23.56;74.53
13709;BME280;54933;51.908;7.730;2022-09-14T08:54:55;99993.41;;;23.60;74.69
13709;BME280;54933;51.908;7.730;2022-09-14T08:57:33;99995.34;;;23.65;74.49
13709;BME280;54933;51.908;7.730;2022-09-14T09:00:11;99998.97;;;23.70;74.85
13709;BME280;54933;51.908;7.730;2022-09-14T09:02:52;99981.53;;;23.66;74.73
13709;BME280;54933;51.908;7.730;2022-09-14T09:08:16;99979.91;;;23.65;74.55
13709;BME280;54933;51.908;7.730;2022-09-14T09:10:43;99974.75;;;23.64;74.84
13709;BME280;54933;51.908;7.730;2022-09-14T09:13:18;99974.22;;;23.67;74.97
13709;BME280;54933;51.908;7.730;2022-09-14T09:15:49;99966.09;;;23.67;74.80
13709;BME280;54933;51.908;7.730;2022-09-14T09:18:20;99972.28;;;23.62;74.89
13709;BME280;54933;51.908;7.730;2022-09-14T09:20:51;99973.66;;;23.65;74.75
13709;BME280;54933;51.908;7.730;2022-09-14T09:23:21;99976.69;;;23.68;74.81
13709;BME280;54933;51.908;7.730;2022-09-14T09:26:06;99988.03;;;23.65;74.97
13709;BME280;54933;51.908;7.730;2022-09-14T09:28:39;99983.41;;;23.66;74.88
13709;BME280;54933;51.908;7.730;2022-09-14T09:31:08;99986.13;;;23.66;74.58
13709;BME280;54933;51.908;7.730;2022-09-14T09:33:36;99993.16;;;23.62;74.69
13709;BME280;54933;51.908;7.730;2022-09-14T09:36:02;100000.47;;;23.61;74.59
13709;BME280;54933;51.908;7.730;2022-09-14T09:38:31;100002.13;;;23.62;74.76
13709;BME280;54933;51.908;7.730;2022-09-14T09:40:58;100002.91;;;23.63;74.69
13709;BME280;54933;51.908;7.730;2022-09-14T09:43:24;100005.06;;;23.61;74.91
13709;BME280;54933;51.908;7.730;2022-09-14T09:45:56;99996.69;;;23.62;74.83
13709;BME280;54933;51.908;7.730;2022-09-14T09:48:30;99996.44;;;23.64;74.75
13709;BME280;54933;51.908;7.730;2022-09-14T09:53:27;99992.91;;;23.63;74.84
13709;BME280;54933;51.908;7.730;2022-09-14T09:55:53;99994.53;;;23.64;74.87
13709;BME280;54933;51.908;7.730;2022-09-14T09:58:32;99996.13;;;23.60;74.67
13709;BME280;54933;51.908;7.730;2022-09-14T10:01:06;99995.88;;;23.62;75.00
13709;BME280;54933;51.908;7.730;2022-09-14T10:03:41;100004.25;;;23.60;74.83
13709;BME280;54933;51.908;7.730;2022-09-14T10:06:09;100000.47;;;23.61;74.97
13709;BME280;54933;51.908;7.730;2022-09-14T10:08:43;99993.41;;;23.60;75.10
13709;BME280;54933;51.908;7.730;2022-09-14T10:11:32;99994.97;;;23.56;75.09
13709;BME280;54933;51.908;7.730;2022-09-14T10:14:01;99996.88;;;23.56;75.05
13709;BME280;54933;51.908;7.730;2022-09-14T10:16:33;99983.59;;;23.59;74.95
13709;BME280;54933;51.908;7.730;2022-09-14T10:18:59;99986.84;;;23.56;74.89
13709;BME280;54933;51.908;7.730;2022-09-14T10:21:27;99970.06;;;23.59;74.82
13709;BME280;54933;51.908;7.730;2022-09-14T10:24:04;99959.44;;;23.58;74.71
13709;BME280;54933;51.908;7.730;2022-09-14T10:26:34;99964.63;;;23.59;75.00
13709;BME280;54933;51.908;7.730;2022-09-14T10:29:29;99964.63;;;23.59;74.85
13709;BME280;54933;51.908;7.730;2022-09-14T10:32:04;99962.47;;;23.61;75.02
13709;BME280;54933;51.908;7.730;2022-09-14T10:34:31;99973.34;;;23.61;75.17
13709;BME280;54933;51.908;7.730;2022-09-14T10:37:12;99975.78;;;23.63;75.09
13709;BME280;54933;51.908;7.730;2022-09-14T10:39:46;99979.97;;;23.70;75.37
13709;BME280;54933;51.908;7.730;2022-09-14T10:42:36;99976.09;;;23.66;75.45
13709;BME280;54933;51.908;7.730;2022-09-14T10:45:38;99984.25;;;23.66;75.82
13709;BME280;54933;51.908;7.730;2022-09-14T10:54:00;99981.03;;;23.69;75.96
13709;BME280;54933;51.908;7.730;2022-09-14T10:56:42;99981.03;;;23.69;75.89
13709;BME280;54933;51.908;7.730;2022-09-14T10:59:59;99990.81;;;23.70;76.09
13709;BME280;54933;51.908;7.730;2022-09-14T11:05:00;99989.16;;;23.69;76.38
13709;BME280;54933;51.908;7.730;2022-09-14T11:07:33;99985.34;;;23.65;76.35
13709;BME280;54933;51.908;7.730;2022-09-14T11:10:22;99979.91;;;23.65;76.49
13709;BME280;54933;51.908;7.730;2022-09-14T11:19:07;99968.22;;;23.65;76.39
13709;BME280;54933;51.908;7.730;2022-09-14T11:24:23;99971.25;;;23.68;76.36
13709;BME280;54933;51.908;7.730;2022-09-14T11:30:30;99964.75;;;23.69;76.30
13709;BME280;54933;51.908;7.730;2022-09-14T11:32:59;99960.66;;;23.67;76.24
13709;BME280;54933;51.908;7.730;2022-09-14T11:35:37;99950.06;;;23.65;75.95
13709;BME280;54933;51.908;7.730;2022-09-14T11:40:42;99947.34;;;23.65;76.15
13709;BME280;54933;51.908;7.730;2022-09-14T11:45:53;99946.84;;;23.68;75.96
13709;BME280;54933;51.908;7.730;2022-09-14T11:48:24;99943.31;;;23.68;75.78
13709;BME280;54933;51.908;7.730;2022-09-14T11:51:00;99941.41;;;23.68;75.75
13709;BME280;54933;51.908;7.730;2022-09-14T11:53:27;99940.84;;;23.66;75.82
13709;BME280;54933;51.908;7.730;2022-09-14T11:55:53;99944.06;;;23.63;75.87
13709;BME280;54933;51.908;7.730;2022-09-14T11:58:24;99939.72;;;23.62;75.91
13709;BME280;54933;51.908;7.730;2022-09-14T12:01:09;99949.19;;;23.60;75.98
13709;BME280;54933;51.908;7.730;2022-09-14T12:11:44;99944.59;;;23.60;75.92
13709;BME280;54933;51.908;7.730;2022-09-14T12:17:21;99941.88;;;23.60;75.72
13709;BME280;54933;51.908;7.730;2022-09-14T12:19:49;99943.50;;;23.61;75.51
13709;BME280;54933;51.908;7.730;2022-09-14T12:22:32;99945.09;;;23.57;75.59
13709;BME280;54933;51.908;7.730;2022-09-14T12:25:18;99944.59;;;23.60;75.42
13709;BME280;54933;51.908;7.730;2022-09-14T12:27:46;99944.25;;;23.57;75.42
13709;BME280;54933;51.908;7.730;2022-09-14T12:36:04;99953.38;;;23.72;74.82
13709;BME280;54933;51.908;7.730;2022-09-14T12:40:56;99953.69;;;23.76;74.76
13709;BME280;54933;51.908;7.730;2022-09-14T12:46:06;99947.34;;;23.65;75.09
13709;BME280;54933;51.908;7.730;2022-09-14T12:59:10;99934.41;;;23.72;75.53
13709;BME280;54933;51.908;7.730;2022-09-14T13:04:16;99923.53;;;23.72;75.05
13709;BME280;54933;51.908;7.730;2022-09-14T13:06:46;99914.28;;;23.68;75.03
13709;BME280;54933;51.908;7.730;2022-09-14T13:09:18;99925.16;;;23.68;75.36
13709;BME280;54933;51.908;7.730;2022-09-14T13:11:45;99919.19;;;23.71;75.37
13709;BME280;54933;51.908;7.730;2022-09-14T13:14:17;99909.97;;;23.72;75.44
13709;BME280;54933;51.908;7.730;2022-09-14T13:16:44;99911.13;;;23.76;75.72
13709;BME280;54933;51.908;7.730;2022-09-14T13:19:28;99897.19;;;23.68;75.84
13709;BME280;54933;51.908;7.730;2022-09-14T13:21:56;99894.72;;;23.66;75.88
13709;BME280;54933;51.908;7.730;2022-09-14T13:27:00;99891.44;;;23.64;76.70
13709;BME280;54933;51.908;7.730;2022-09-14T13:29:27;99879.28;;;23.67;77.15
13709;BME280;54933;51.908;7.730;2022-09-14T13:31:54;99880.09;;;23.67;76.66
13709;BME280;54933;51.908;7.730;2022-09-14T13:34:24;99882.56;;;23.69;76.99
13709;BME280;54933;51.908;7.730;2022-09-14T13:36:50;99890.94;;;23.67;76.76
13709;BME280;54933;51.908;7.730;2022-09-14T13:39:44;99886.22;;;23.31;76.27
13709;BME280;54933;51.908;7.730;2022-09-14T13:42:10;99895.59;;;23.45;76.83
13709;BME280;54933;51.908;7.730;2022-09-14T13:44:39;99883.47;;;23.53;76.75
13709;BME280;54933;51.908;7.730;2022-09-14T13:47:11;99881.13;;;23.61;76.46
13709;BME280;54933;51.908;7.730;2022-09-14T13:49:39;99882.78;;;23.62;76.17
13709;BME280;54933;51.908;7.730;2022-09-14T13:54:49;99875.69;;;23.61;76.29
13709;BME280;54933;51.908;7.730;2022-09-14T13:57:19;99875.19;;;23.64;76.24
13709;BME280;54933;51.908;7.730;2022-09-14T14:02:43;99864.91;;;23.66;75.93
13709;BME280;54933;51.908;7.730;2022-09-14T14:05:20;99865.47;;;23.68;75.77
13709;BME280;54933;51.908;7.730;2022-09-14T14:07:46;99856.25;;;23.69;75.75
13709;BME280;54933;51.908;7.730;2022-09-14T14:10:27;99861.09;;;23.67;75.33
13709;BME280;54933;51.908;7.730;2022-09-14T14:12:54;99855.94;;;23.66;75.48
13709;BME280;54933;51.908;7.730;2022-09-14T14:17:45;99861.41;;;23.71;75.39
13709;BME280;54933;51.908;7.730;2022-09-14T14:25:44;99844.88;;;23.72;75.08
13709;BME280;54933;51.908;7.730;2022-09-14T14:28:18;99846.53;;;23.73;75.13
13709;BME280;54933;51.908;7.730;2022-09-14T14:30:46;99846.53;;;23.73;74.96
13709;BME280;54933;51.908;7.730;2022-09-14T14:33:13;99850.81;;;23.69;75.05
13709;BME280;54933;51.908;7.730;2022-09-14T14:35:38;99852.72;;;23.69;74.94
13709;BME280;54933;51.908;7.730;2022-09-14T14:38:04;99846.22;;;23.70;74.79
13709;BME280;54933;51.908;7.730;2022-09-14T14:40:30;99845.41;;;23.69;75.10
13709;BME280;54933;51.908;7.730;2022-09-14T14:42:58;99850.81;;;23.69;75.33
13709;BME280;54933;51.908;7.730;2022-09-14T14:45:25;99849.19;;;23.68;75.47
13709;BME280;54933;51.908;7.730;2022-09-14T14:47:52;99845.91;;;23.66;75.31